sensor_id;sensor_type;location;lat;lon;timestamp;pressure;altitude;pressure_sealevel;temperature;humidity
3464;BME280;3551;41.578;24.706;2023-02-19T00:02:14;91554.19;;;3.49;87.46
3464;BME280;3551;41.578;24.706;2023-02-19T00:04:50;91559.38;;;3.46;87.55
3464;BME280;3551;41.578;24.706;2023-02-19T00:07:33;91550.97;;;3.28;89.11
3464;BME280;3551;41.578;24.706;2023-02-19T00:10:14;91546.56;;;3.32;89.69
3464;BME280;3551;41.578;24.706;2023-02-19T00:12:58;91548.16;;;3.36;89.24
3464;BME280;3551;41.578;24.706;2023-02-19T00:15:36;91549.31;;;3.35;89.39
3464;BME280;3551;41.578;24.706;2023-02-19T00:18:06;91530.19;;;3.42;88.83
3464;BME280;3551;41.578;24.706;2023-02-19T00:20:40;91526.53;;;3.47;88.67
3464;BME280;3551;41.578;24.706;2023-02-19T00:23:14;91522.19;;;3.38;88.91
3464;BME280;3551;41.578;24.706;2023-02-19T00:25:54;91528.00;;;3.44;88.98
3464;BME280;3551;41.578;24.706;2023-02-19T00:31:31;91524.50;;;3.56;88.06
3464;BME280;3551;41.578;24.706;2023-02-19T00:34:13;91535.47;;;3.42;88.55
3464;BME280;3551;41.578;24.706;2023-02-19T00:36:57;91532.41;;;3.40;88.66
3464;BME280;3551;41.578;24.706;2023-02-19T00:39:24;91532.31;;;3.36;88.82
3464;BME280;3551;41.578;24.706;2023-02-19T00:41:53;91532.47;;;3.28;89.21
3464;BME280;3551;41.578;24.706;2023-02-19T00:44:34;91517.38;;;3.28;89.42
3464;BME280;3551;41.578;24.706;2023-02-19T00:47:22;91517.63;;;3.23;89.46
3464;BME280;3551;41.578;24.706;2023-02-19T00:49:51;91514.75;;;3.28;89.78
3464;BME280;3551;41.578;24.706;2023-02-19T00:53:12;91508.88;;;3.35;89.36
3464;BME280;3551;41.578;24.706;2023-02-19T00:55:54;91512.72;;;3.37;88.88
3464;BME280;3551;41.578;24.706;2023-02-19T00:58:29;91509.66;;;3.35;88.92
3464;BME280;3551;41.578;24.706;2023-02-19T01:01:04;91509.09;;;3.14;89.81
3464;BME280;3551;41.578;24.706;2023-02-19T01:03:58;91506.03;;;3.12;89.87
3464;BME280;3551;41.578;24.706;2023-02-19T01:06:50;91510.00;;;3.06;90.09
3464;BME280;3551;41.578;24.706;2023-02-19T01:09:21;91500.34;;;2.98;91.52
3464;BME280;3551;41.578;24.706;2023-02-19T01:11:54;91495.00;;;3.10;91.12
3464;BME280;3551;41.578;24.706;2023-02-19T01:14:27;91490.44;;;3.23;90.80
3464;BME280;3551;41.578;24.706;2023-02-19T01:17:03;91484.63;;;3.17;90.66
3464;BME280;3551;41.578;24.706;2023-02-19T01:19:46;91476.97;;;3.12;90.67
3464;BME280;3551;41.578;24.706;2023-02-19T01:22:15;91476.56;;;3.26;90.88
3464;BME280;3551;41.578;24.706;2023-02-19T01:24:50;91465.69;;;3.15;90.34
3464;BME280;3551;41.578;24.706;2023-02-19T01:27:24;91461.19;;;3.16;90.51
3464;BME280;3551;41.578;24.706;2023-02-19T01:29:55;91464.84;;;3.11;90.80
3464;BME280;3551;41.578;24.706;2023-02-19T01:32:28;91456.75;;;3.20;90.57
3464;BME280;3551;41.578;24.706;2023-02-19T01:34:59;91458.22;;;3.17;90.66
3464;BME280;3551;41.578;24.706;2023-02-19T01:37:35;91462.63;;;3.13;90.35
3464;BME280;3551;41.578;24.706;2023-02-19T01:40:16;91459.16;;;3.09;90.59
3464;BME280;3551;41.578;24.706;2023-02-19T01:42:45;91462.88;;;3.08;90.79
3464;BME280;3551;41.578;24.706;2023-02-19T01:45:27;91453.03;;;2.93;91.04
3464;BME280;3551;41.578;24.706;2023-02-19T01:47:57;91444.28;;;3.05;90.93
3464;BME280;3551;41.578;24.706;2023-02-19T01:50:31;91442.69;;;3.00;91.50
3464;BME280;3551;41.578;24.706;2023-02-19T01:53:09;91448.13;;;2.92;91.66
3464;BME280;3551;41.578;24.706;2023-02-19T01:56:07;91442.91;;;2.95;92.04
3464;BME280;3551;41.578;24.706;2023-02-19T01:58:36;91444.97;;;3.02;91.57
3464;BME280;3551;41.578;24.706;2023-02-19T02:01:04;91443.41;;;3.01;91.79
3464;BME280;3551;41.578;24.706;2023-02-19T02:03:50;91440.72;;;2.97;91.96
3464;BME280;3551;41.578;24.706;2023-02-19T02:06:20;91445.69;;;2.87;93.04
3464;BME280;3551;41.578;24.706;2023-02-19T02:08:49;91440.34;;;2.99;92.24
3464;BME280;3551;41.578;24.706;2023-02-19T02:11:34;91450.91;;;2.83;92.46
3464;BME280;3551;41.578;24.706;2023-02-19T02:14:01;91447.50;;;2.82;92.99
3464;BME280;3551;41.578;24.706;2023-02-19T02:16:41;91450.50;;;2.97;92.48
3464;BME280;3551;41.578;24.706;2023-02-19T02:19:21;91452.00;;;2.82;92.30
3464;BME280;3551;41.578;24.706;2023-02-19T02:27:41;91455.31;;;2.79;92.18
3464;BME280;3551;41.578;24.706;2023-02-19T02:30:23;91450.19;;;2.86;92.40
3464;BME280;3551;41.578;24.706;2023-02-19T02:36:07;91446.53;;;2.75;93.33
3464;BME280;3551;41.578;24.706;2023-02-19T02:38:40;91456.00;;;2.76;93.61
3464;BME280;3551;41.578;24.706;2023-02-19T02:41:11;91452.78;;;2.82;93.38
3464;BME280;3551;41.578;24.706;2023-02-19T02:44:00;91457.81;;;2.88;92.77
3464;BME280;3551;41.578;24.706;2023-02-19T02:49:37;91441.16;;;2.71;94.33
3464;BME280;3551;41.578;24.706;2023-02-19T02:52:34;91449.66;;;2.65;94.92
3464;BME280;3551;41.578;24.706;2023-02-19T02:55:36;91446.34;;;2.68;95.07
3464;BME280;3551;41.578;24.706;2023-02-19T02:58:24;91451.78;;;2.75;95.37
3464;BME280;3551;41.578;24.706;2023-02-19T03:01:14;91447.16;;;2.84;95.07
3464;BME280;3551;41.578;24.706;2023-02-19T03:04:03;91451.56;;;2.80;94.44
3464;BME280;3551;41.578;24.706;2023-02-19T03:09:58;91445.28;;;2.84;94.46
3464;BME280;3551;41.578;24.706;2023-02-19T03:12:50;91440.34;;;2.83;94.52
3464;BME280;3551;41.578;24.706;2023-02-19T03:15:57;91440.25;;;2.79;94.44
3464;BME280;3551;41.578;24.706;2023-02-19T03:18:54;91439.22;;;2.84;94.13
3464;BME280;3551;41.578;24.706;2023-02-19T03:21:42;91442.00;;;2.75;94.25
3464;BME280;3551;41.578;24.706;2023-02-19T03:24:27;91442.38;;;2.74;94.35
3464;BME280;3551;41.578;24.706;2023-02-19T03:27:36;91445.56;;;2.67;94.32
3464;BME280;3551;41.578;24.706;2023-02-19T03:30:18;91446.53;;;2.75;94.44
3464;BME280;3551;41.578;24.706;2023-02-19T03:33:03;91436.56;;;2.68;94.83
3464;BME280;3551;41.578;24.706;2023-02-19T03:35:50;91446.44;;;2.71;94.65
3464;BME280;3551;41.578;24.706;2023-02-19T03:38:55;91449.41;;;2.70;94.70
3464;BME280;3551;41.578;24.706;2023-02-19T03:41:35;91442.78;;;2.76;94.55
3464;BME280;3551;41.578;24.706;2023-02-19T03:47:19;91452.16;;;2.73;94.75
3464;BME280;3551;41.578;24.706;2023-02-19T03:53:05;91454.66;;;2.82;94.46
3464;BME280;3551;41.578;24.706;2023-02-19T03:58:53;91465.00;;;2.75;93.87
3464;BME280;3551;41.578;24.706;2023-02-19T04:01:36;91453.66;;;2.74;94.39
3464;BME280;3551;41.578;24.706;2023-02-19T04:12:47;91458.41;;;2.69;94.75
3464;BME280;3551;41.578;24.706;2023-02-19T04:15:34;91467.34;;;2.64;94.68
3464;BME280;3551;41.578;24.706;2023-02-19T04:18:27;91469.22;;;2.64;94.24
3464;BME280;3551;41.578;24.706;2023-02-19T04:24:15;91478.47;;;2.58;94.96
3464;BME280;3551;41.578;24.706;2023-02-19T04:27:04;91478.91;;;2.60;94.69
3464;BME280;3551;41.578;24.706;2023-02-19T04:30:14;91475.19;;;2.61;94.70
3464;BME280;3551;41.578;24.706;2023-02-19T04:35:53;91480.88;;;2.63;95.68
3464;BME280;3551;41.578;24.706;2023-02-19T04:38:50;91470.31;;;2.63;95.33
3464;BME280;3551;41.578;24.706;2023-02-19T04:41:37;91475.94;;;2.61;95.68
3464;BME280;3551;41.578;24.706;2023-02-19T04:44:31;91476.25;;;2.60;95.39
3464;BME280;3551;41.578;24.706;2023-02-19T04:50:25;91487.88;;;2.43;95.99
3464;BME280;3551;41.578;24.706;2023-02-19T04:59:20;91489.47;;;2.60;95.36
3464;BME280;3551;41.578;24.706;2023-02-19T05:02:10;91481.53;;;2.60;94.89
3464;BME280;3551;41.578;24.706;2023-02-19T05:05:04;91484.44;;;2.55;95.27
3464;BME280;3551;41.578;24.706;2023-02-19T05:07:59;91488.63;;;2.56;95.00
3464;BME280;3551;41.578;24.706;2023-02-19T05:10:46;91489.16;;;2.61;94.39
3464;BME280;3551;41.578;24.706;2023-02-19T05:13:38;91492.97;;;2.36;96.78
3464;BME280;3551;41.578;24.706;2023-02-19T05:16:41;91499.75;;;2.37;96.24
3464;BME280;3551;41.578;24.706;2023-02-19T05:19:09;91498.66;;;2.38;96.73
3464;BME280;3551;41.578;24.706;2023-02-19T05:21:54;91491.94;;;2.41;97.91
3464;BME280;3551;41.578;24.706;2023-02-19T05:24:27;91494.03;;;2.47;97.41
3464;BME280;3551;41.578;24.706;2023-02-19T05:26:56;91503.28;;;2.41;97.37
3464;BME280;3551;41.578;24.706;2023-02-19T05:29:44;91501.03;;;2.55;96.43
3464;BME280;3551;41.578;24.706;2023-02-19T05:32:24;91503.38;;;2.45;96.80
3464;BME280;3551;41.578;24.706;2023-02-19T05:35:12;91503.03;;;2.46;97.36
3464;BME280;3551;41.578;24.706;2023-02-19T05:37:57;91511.50;;;2.52;96.86
3464;BME280;3551;41.578;24.706;2023-02-19T05:43:57;91510.16;;;2.58;97.69
3464;BME280;3551;41.578;24.706;2023-02-19T05:46:41;91517.16;;;2.66;96.68
3464;BME280;3551;41.578;24.706;2023-02-19T05:49:51;91523.19;;;2.78;96.36
3464;BME280;3551;41.578;24.706;2023-02-19T06:38:43;91548.38;;;5.07;84.17
3464;BME280;3551;41.578;24.706;2023-02-19T06:41:38;91541.78;;;5.17;83.73
3464;BME280;3551;41.578;24.706;2023-02-19T06:44:23;91541.41;;;5.18;83.77
3464;BME280;3551;41.578;24.706;2023-02-19T06:50:24;91537.38;;;5.24;84.16
3464;BME280;3551;41.578;24.706;2023-02-19T06:52:55;91541.50;;;5.22;83.26
3464;BME280;3551;41.578;24.706;2023-02-19T07:12:11;91534.09;;;5.73;82.15
3464;BME280;3551;41.578;24.706;2023-02-19T07:25:51;91524.78;;;5.82;81.84
3464;BME280;3551;41.578;24.706;2023-02-19T07:58:25;91521.03;;;6.55;79.02
3464;BME280;3551;41.578;24.706;2023-02-19T08:01:18;91522.06;;;6.73;78.33
3464;BME280;3551;41.578;24.706;2023-02-19T08:07:17;91512.25;;;7.07;75.90
3464;BME280;3551;41.578;24.706;2023-02-19T08:10:00;91505.44;;;7.09;75.41
3464;BME280;3551;41.578;24.706;2023-02-19T08:12:57;91504.53;;;7.28;74.25
3464;BME280;3551;41.578;24.706;2023-02-19T08:19:50;91491.97;;;7.62;71.66
3464;BME280;3551;41.578;24.706;2023-02-19T08:22:35;91491.31;;;7.72;70.90
3464;BME280;3551;41.578;24.706;2023-02-19T08:25:25;91480.75;;;7.82;70.97
3464;BME280;3551;41.578;24.706;2023-02-19T08:28:19;91482.00;;;7.92;70.35
3464;BME280;3551;41.578;24.706;2023-02-19T08:30:57;91484.69;;;7.96;70.96
3464;BME280;3551;41.578;24.706;2023-02-19T08:33:27;91481.34;;;8.06;71.13
3464;BME280;3551;41.578;24.706;2023-02-19T08:36:12;91476.47;;;8.15;70.97
3464;BME280;3551;41.578;24.706;2023-02-19T08:38:41;91477.06;;;8.38;69.67
3464;BME280;3551;41.578;24.706;2023-02-19T08:41:13;91468.44;;;8.59;68.66
3464;BME280;3551;41.578;24.706;2023-02-19T08:43:46;91464.72;;;8.70;67.86
3464;BME280;3551;41.578;24.706;2023-02-19T08:46:15;91465.16;;;8.83;67.80
3464;BME280;3551;41.578;24.706;2023-02-19T08:49:02;91453.00;;;8.89;66.81
3464;BME280;3551;41.578;24.706;2023-02-19T08:54:24;91450.84;;;9.23;65.71
3464;BME280;3551;41.578;24.706;2023-02-19T08:57:13;91446.72;;;9.36;63.98
3464;BME280;3551;41.578;24.706;2023-02-19T08:59:57;91441.75;;;9.38;63.33
3464;BME280;3551;41.578;24.706;2023-02-19T09:02:27;91436.09;;;9.57;62.13
3464;BME280;3551;41.578;24.706;2023-02-19T09:05:10;91444.53;;;9.77;59.79
3464;BME280;3551;41.578;24.706;2023-02-19T09:07:51;91449.47;;;9.78;59.94
3464;BME280;3551;41.578;24.706;2023-02-19T09:10:38;91447.94;;;9.81;60.67
3464;BME280;3551;41.578;24.706;2023-02-19T09:13:20;91445.75;;;10.14;57.07
3464;BME280;3551;41.578;24.706;2023-02-19T09:15:56;91440.38;;;10.43;54.95
3464;BME280;3551;41.578;24.706;2023-02-19T09:18:34;91439.19;;;10.68;54.41
3464;BME280;3551;41.578;24.706;2023-02-19T09:21:38;91437.25;;;10.94;53.36
3464;BME280;3551;41.578;24.706;2023-02-19T09:24:24;91426.53;;;10.94;52.87
3464;BME280;3551;41.578;24.706;2023-02-19T09:33:11;91422.91;;;11.39;49.52
3464;BME280;3551;41.578;24.706;2023-02-19T09:36:00;91422.91;;;11.39;50.17
3464;BME280;3551;41.578;24.706;2023-02-19T09:39:04;91422.50;;;11.44;52.42
3464;BME280;3551;41.578;24.706;2023-02-19T09:42:09;91423.19;;;11.59;52.75
3464;BME280;3551;41.578;24.706;2023-02-19T10:39:53;91340.44;;;13.58;41.74
3464;BME280;3551;41.578;24.706;2023-02-19T10:43:23;91336.25;;;13.57;42.27
3464;BME280;3551;41.578;24.706;2023-02-19T10:46:19;91337.03;;;13.27;44.22
3464;BME280;3551;41.578;24.706;2023-02-19T10:51:53;91319.44;;;13.23;43.05
3464;BME280;3551;41.578;24.706;2023-02-19T11:15:31;91300.25;;;12.90;43.42
3464;BME280;3551;41.578;24.706;2023-02-19T11:22:31;91300.91;;;13.02;43.96
3464;BME280;3551;41.578;24.706;2023-02-19T11:25:43;91295.88;;;13.04;43.88
3464;BME280;3551;41.578;24.706;2023-02-19T13:14:29;91187.38;;;12.74;46.43
3464;BME280;3551;41.578;24.706;2023-02-19T13:17:22;91186.66;;;12.70;46.38
3464;BME280;3551;41.578;24.706;2023-02-19T13:51:44;91137.25;;;12.37;46.91
3464;BME280;3551;41.578;24.706;2023-02-19T13:54:25;91142.75;;;12.27;48.28
3464;BME280;3551;41.578;24.706;2023-02-19T13:59:38;91135.84;;;11.99;48.44
3464;BME280;3551;41.578;24.706;2023-02-19T14:02:09;91132.06;;;11.93;48.62
3464;BME280;3551;41.578;24.706;2023-02-19T14:04:41;91144.66;;;11.96;48.90
3464;BME280;3551;41.578;24.706;2023-02-19T14:10:04;91135.22;;;12.18;47.98
3464;BME280;3551;41.578;24.706;2023-02-19T14:12:34;91137.53;;;12.16;47.69
3464;BME280;3551;41.578;24.706;2023-02-19T14:17:58;91143.50;;;12.31;47.30
3464;BME280;3551;41.578;24.706;2023-02-19T14:20:40;91137.72;;;12.32;47.67
3464;BME280;3551;41.578;24.706;2023-02-19T14:23:14;91130.66;;;12.46;46.53
3464;BME280;3551;41.578;24.706;2023-02-19T14:25:46;91131.03;;;12.44;46.14
3464;BME280;3551;41.578;24.706;2023-02-19T14:28:27;91135.41;;;12.61;46.64
3464;BME280;3551;41.578;24.706;2023-02-19T14:30:55;91136.22;;;12.85;45.03
3464;BME280;3551;41.578;24.706;2023-02-19T14:33:23;91132.16;;;13.00;44.82
3464;BME280;3551;41.578;24.706;2023-02-19T14:35:52;91138.59;;;13.06;45.20
3464;BME280;3551;41.578;24.706;2023-02-19T14:38:21;91141.28;;;13.06;45.03
3464;BME280;3551;41.578;24.706;2023-02-19T14:40:51;91138.59;;;13.06;44.75
3464;BME280;3551;41.578;24.706;2023-02-19T14:43:20;91140.16;;;13.04;44.90
3464;BME280;3551;41.578;24.706;2023-02-19T14:45:48;91143.97;;;13.06;44.67
3464;BME280;3551;41.578;24.706;2023-02-19T14:48:16;91142.41;;;12.82;46.04
3464;BME280;3551;41.578;24.706;2023-02-19T14:50:45;91137.22;;;12.41;46.82
3464;BME280;3551;41.578;24.706;2023-02-19T14:53:13;91135.44;;;12.31;46.69
3464;BME280;3551;41.578;24.706;2023-02-19T14:55:41;91136.63;;;12.26;46.92
3464;BME280;3551;41.578;24.706;2023-02-19T14:58:11;91141.88;;;12.37;46.15
3464;BME280;3551;41.578;24.706;2023-02-19T15:00:39;91146.59;;;12.56;45.83
3464;BME280;3551;41.578;24.706;2023-02-19T15:03:20;91140.69;;;12.68;46.46
3464;BME280;3551;41.578;24.706;2023-02-19T15:05:52;91144.44;;;12.44;46.87
3464;BME280;3551;41.578;24.706;2023-02-19T15:08:20;91142.16;;;12.46;46.52
3464;BME280;3551;41.578;24.706;2023-02-19T15:10:51;91141.81;;;12.40;46.25
3464;BME280;3551;41.578;24.706;2023-02-19T15:13:23;91140.84;;;12.27;47.20
3464;BME280;3551;41.578;24.706;2023-02-19T15:15:51;91145.53;;;12.20;47.39
3464;BME280;3551;41.578;24.706;2023-02-19T15:18:20;91140.97;;;12.47;45.82
3464;BME280;3551;41.578;24.706;2023-02-19T15:20:48;91131.81;;;12.45;46.01
3464;BME280;3551;41.578;24.706;2023-02-19T15:23:15;91134.53;;;12.41;46.85
3464;BME280;3551;41.578;24.706;2023-02-19T15:25:44;91131.66;;;12.28;47.13
3464;BME280;3551;41.578;24.706;2023-02-19T15:28:24;91137.25;;;12.07;47.88
3464;BME280;3551;41.578;24.706;2023-02-19T15:31:02;91140.78;;;12.34;46.99
3464;BME280;3551;41.578;24.706;2023-02-19T15:33:31;91137.94;;;12.15;47.48
3464;BME280;3551;41.578;24.706;2023-02-19T15:35:58;91128.06;;;12.08;48.10
3464;BME280;3551;41.578;24.706;2023-02-19T15:38:26;91140.03;;;11.97;48.61
3464;BME280;3551;41.578;24.706;2023-02-19T15:40:53;91134.81;;;11.86;49.06
3464;BME280;3551;41.578;24.706;2023-02-19T15:43:23;91135.66;;;11.79;49.06
3464;BME280;3551;41.578;24.706;2023-02-19T15:45:50;91138.81;;;11.71;49.03
3464;BME280;3551;41.578;24.706;2023-02-19T15:48:20;91146.06;;;11.70;49.00
3464;BME280;3551;41.578;24.706;2023-02-19T15:50:49;91138.84;;;11.67;48.96
3464;BME280;3551;41.578;24.706;2023-02-19T15:53:18;91140.91;;;11.49;49.47
3464;BME280;3551;41.578;24.706;2023-02-19T15:55:46;91142.97;;;11.35;50.19
3464;BME280;3551;41.578;24.706;2023-02-19T15:58:16;91141.72;;;11.46;50.85
3464;BME280;3551;41.578;24.706;2023-02-19T16:00:46;91134.88;;;10.97;52.53
3464;BME280;3551;41.578;24.706;2023-02-19T16:03:14;91143.03;;;10.80;52.92
3464;BME280;3551;41.578;24.706;2023-02-19T16:05:43;91142.94;;;10.94;52.57
3464;BME280;3551;41.578;24.706;2023-02-19T16:08:17;91149.03;;;10.94;53.02
3464;BME280;3551;41.578;24.706;2023-02-19T16:10:54;91151.72;;;10.94;53.16
3464;BME280;3551;41.578;24.706;2023-02-19T16:13:22;91151.34;;;10.92;53.77
3464;BME280;3551;41.578;24.706;2023-02-19T16:15:55;91158.69;;;10.81;54.08
3464;BME280;3551;41.578;24.706;2023-02-19T16:18:22;91158.09;;;10.56;54.84
3464;BME280;3551;41.578;24.706;2023-02-19T16:20:49;91165.41;;;10.45;55.62
3464;BME280;3551;41.578;24.706;2023-02-19T16:23:16;91173.38;;;10.52;55.70
3464;BME280;3551;41.578;24.706;2023-02-19T16:25:46;91169.25;;;10.40;56.03
3464;BME280;3551;41.578;24.706;2023-02-19T16:28:17;91163.19;;;10.26;56.22
3464;BME280;3551;41.578;24.706;2023-02-19T16:30:47;91165.53;;;10.20;57.03
3464;BME280;3551;41.578;24.706;2023-02-19T16:36:16;91177.00;;;10.03;57.93
3464;BME280;3551;41.578;24.706;2023-02-19T16:38:57;91167.94;;;9.86;58.64
3464;BME280;3551;41.578;24.706;2023-02-19T16:41:24;91178.22;;;9.84;57.94
3464;BME280;3551;41.578;24.706;2023-02-19T16:43:50;91183.94;;;9.83;58.56
3464;BME280;3551;41.578;24.706;2023-02-19T16:46:17;91184.00;;;9.65;59.25
3464;BME280;3551;41.578;24.706;2023-02-19T16:48:44;91185.94;;;9.54;59.65
3464;BME280;3551;41.578;24.706;2023-02-19T16:51:13;91192.00;;;9.69;59.67
3464;BME280;3551;41.578;24.706;2023-02-19T16:53:43;91194.28;;;9.67;59.34
3464;BME280;3551;41.578;24.706;2023-02-19T16:56:11;91187.03;;;9.63;59.33
3464;BME280;3551;41.578;24.706;2023-02-19T16:58:39;91187.84;;;9.57;59.99
3464;BME280;3551;41.578;24.706;2023-02-19T17:01:06;91198.50;;;9.46;60.28
3464;BME280;3551;41.578;24.706;2023-02-19T17:03:32;91195.47;;;9.41;60.24
3464;BME280;3551;41.578;24.706;2023-02-19T17:05:59;91204.25;;;9.34;61.15
3464;BME280;3551;41.578;24.706;2023-02-19T17:08:31;91215.31;;;9.33;60.97
3464;BME280;3551;41.578;24.706;2023-02-19T17:11:00;91204.63;;;9.26;61.36
3464;BME280;3551;41.578;24.706;2023-02-19T17:13:27;91208.47;;;9.07;61.73
3464;BME280;3551;41.578;24.706;2023-02-19T17:15:54;91208.06;;;9.12;61.80
3464;BME280;3551;41.578;24.706;2023-02-19T17:18:21;91205.41;;;9.01;62.49
3464;BME280;3551;41.578;24.706;2023-02-19T17:20:48;91203.88;;;9.11;62.14
3464;BME280;3551;41.578;24.706;2023-02-19T17:23:16;91205.41;;;9.01;62.89
3464;BME280;3551;41.578;24.706;2023-02-19T17:25:42;91209.59;;;8.81;63.58
3464;BME280;3551;41.578;24.706;2023-02-19T17:28:10;91214.13;;;8.77;63.79
3464;BME280;3551;41.578;24.706;2023-02-19T17:30:37;91213.75;;;8.75;63.86
3464;BME280;3551;41.578;24.706;2023-02-19T17:33:04;91208.78;;;8.74;63.92
3464;BME280;3551;41.578;24.706;2023-02-19T17:35:30;91204.22;;;8.71;64.11
3464;BME280;3551;41.578;24.706;2023-02-19T17:37:57;91208.41;;;8.72;64.39
3464;BME280;3551;41.578;24.706;2023-02-19T17:40:25;91214.13;;;8.70;64.67
3464;BME280;3551;41.578;24.706;2023-02-19T17:42:52;91201.88;;;8.37;66.09
3464;BME280;3551;41.578;24.706;2023-02-19T17:45:20;91209.91;;;8.55;65.01
3464;BME280;3551;41.578;24.706;2023-02-19T17:47:47;91210.25;;;8.50;65.17
3464;BME280;3551;41.578;24.706;2023-02-19T17:50:15;91209.53;;;8.60;64.80
3464;BME280;3551;41.578;24.706;2023-02-19T17:52:43;91215.19;;;8.44;65.66
3464;BME280;3551;41.578;24.706;2023-02-19T17:55:10;91213.28;;;8.41;65.91
3464;BME280;3551;41.578;24.706;2023-02-19T17:57:37;91217.47;;;8.35;65.89
3464;BME280;3551;41.578;24.706;2023-02-19T18:00:04;91217.44;;;8.32;65.84
3464;BME280;3551;41.578;24.706;2023-02-19T18:02:33;91215.13;;;8.27;65.86
3464;BME280;3551;41.578;24.706;2023-02-19T18:05:00;91215.03;;;8.02;67.24
3464;BME280;3551;41.578;24.706;2023-02-19T18:07:26;91221.53;;;8.15;67.09
3464;BME280;3551;41.578;24.706;2023-02-19T18:09:53;91224.59;;;8.17;66.58
3464;BME280;3551;41.578;24.706;2023-02-19T18:12:20;91226.47;;;8.10;67.28
3464;BME280;3551;41.578;24.706;2023-02-19T18:14:46;91228.34;;;8.02;67.30
3464;BME280;3551;41.578;24.706;2023-02-19T18:17:13;91228.00;;;8.11;66.90
3464;BME280;3551;41.578;24.706;2023-02-19T18:19:43;91226.44;;;8.03;67.27
3464;BME280;3551;41.578;24.706;2023-02-19T18:22:10;91235.25;;;8.14;66.48
3464;BME280;3551;41.578;24.706;2023-02-19T18:24:36;91229.16;;;8.13;66.70
3464;BME280;3551;41.578;24.706;2023-02-19T18:27:03;91231.34;;;7.93;67.37
3464;BME280;3551;41.578;24.706;2023-02-19T18:29:30;91230.75;;;7.56;68.77
3464;BME280;3551;41.578;24.706;2023-02-19T18:31:57;91233.47;;;7.63;68.75
3464;BME280;3551;41.578;24.706;2023-02-19T18:34:24;91229.72;;;7.71;68.61
3464;BME280;3551;41.578;24.706;2023-02-19T18:36:52;91238.09;;;7.73;68.32
3464;BME280;3551;41.578;24.706;2023-02-19T18:42:37;91241.50;;;7.74;68.50
3464;BME280;3551;41.578;24.706;2023-02-19T20:48:19;91255.41;;;6.21;76.75
3464;BME280;3551;41.578;24.706;2023-02-19T20:51:12;91258.81;;;6.22;76.39
3464;BME280;3551;41.578;24.706;2023-02-19T21:00:48;91276.22;;;6.19;76.51
3464;BME280;3551;41.578;24.706;2023-02-19T21:12:21;91282.09;;;6.02;77.16
3464;BME280;3551;41.578;24.706;2023-02-19T21:14:54;91281.91;;;5.88;78.59
3464;BME280;3551;41.578;24.706;2023-02-19T21:17:44;91275.25;;;6.01;77.43
3464;BME280;3551;41.578;24.706;2023-02-19T21:23:23;91270.22;;;5.93;78.38
3464;BME280;3551;41.578;24.706;2023-02-19T21:26:01;91277.81;;;5.94;78.65
3464;BME280;3551;41.578;24.706;2023-02-19T21:32:21;91284.69;;;5.95;78.60
3464;BME280;3551;41.578;24.706;2023-02-19T21:34:52;91285.47;;;5.99;78.30
3464;BME280;3551;41.578;24.706;2023-02-19T21:37:28;91293.38;;;5.96;78.08
3464;BME280;3551;41.578;24.706;2023-02-19T21:40:02;91295.75;;;6.01;77.38
3464;BME280;3551;41.578;24.706;2023-02-19T21:45:15;91299.84;;;5.98;77.70
3464;BME280;3551;41.578;24.706;2023-02-19T21:47:52;91298.66;;;5.92;77.99
3464;BME280;3551;41.578;24.706;2023-02-19T21:50:24;91309.16;;;5.85;78.56
3464;BME280;3551;41.578;24.706;2023-02-19T21:52:57;91308.91;;;5.94;78.07
3464;BME280;3551;41.578;24.706;2023-02-19T21:55:33;91313.22;;;5.53;80.09
3464;BME280;3551;41.578;24.706;2023-02-19T21:58:03;91313.59;;;5.78;78.70
3464;BME280;3551;41.578;24.706;2023-02-19T22:00:41;91306.09;;;5.83;78.43
3464;BME280;3551;41.578;24.706;2023-02-19T22:06:10;91305.84;;;5.65;79.17
3464;BME280;3551;41.578;24.706;2023-02-19T22:08:43;91312.72;;;5.70;78.73
3464;BME280;3551;41.578;24.706;2023-02-19T22:14:36;91310.13;;;5.74;78.63
3464;BME280;3551;41.578;24.706;2023-02-19T22:17:11;91308.38;;;5.58;78.80
3464;BME280;3551;41.578;24.706;2023-02-19T22:19:40;91298.53;;;5.59;78.56
3464;BME280;3551;41.578;24.706;2023-02-19T22:22:31;91303.19;;;5.65;78.44
3464;BME280;3551;41.578;24.706;2023-02-19T22:25:14;91298.22;;;5.64;78.37
3464;BME280;3551;41.578;24.706;2023-02-19T22:27:44;91299.13;;;5.49;79.00
3464;BME280;3551;41.578;24.706;2023-02-19T22:30:16;91298.59;;;5.62;78.53
3464;BME280;3551;41.578;24.706;2023-02-19T22:32:58;91293.53;;;5.54;79.01
3464;BME280;3551;41.578;24.706;2023-02-19T22:35:49;91301.00;;;5.45;79.45
3464;BME280;3551;41.578;24.706;2023-02-19T22:38:31;91301.63;;;5.38;79.63
3464;BME280;3551;41.578;24.706;2023-02-19T22:41:02;91306.41;;;5.29;79.77
3464;BME280;3551;41.578;24.706;2023-02-19T22:43:30;91306.22;;;5.41;79.62
3464;BME280;3551;41.578;24.706;2023-02-19T22:46:21;91307.72;;;5.39;79.80
3464;BME280;3551;41.578;24.706;2023-02-19T22:48:54;91305.38;;;5.34;80.17
3464;BME280;3551;41.578;24.706;2023-02-19T22:51:37;91303.72;;;5.26;79.88
3464;BME280;3551;41.578;24.706;2023-02-19T22:54:21;91309.44;;;5.28;80.14
3464;BME280;3551;41.578;24.706;2023-02-19T22:57:06;91302.78;;;5.15;80.55
3464;BME280;3551;41.578;24.706;2023-02-19T22:59:48;91306.97;;;4.93;81.99
3464;BME280;3551;41.578;24.706;2023-02-19T23:02:35;91311.50;;;4.92;82.30
3464;BME280;3551;41.578;24.706;2023-02-19T23:05:32;91305.56;;;4.99;82.57
3464;BME280;3551;41.578;24.706;2023-02-19T23:07:59;91305.91;;;4.97;82.57
3464;BME280;3551;41.578;24.706;2023-02-19T23:10:48;91318.63;;;5.11;82.14
3464;BME280;3551;41.578;24.706;2023-02-19T23:13:26;91309.84;;;5.30;80.96
3464;BME280;3551;41.578;24.706;2023-02-19T23:16:04;91306.81;;;5.31;80.62
3464;BME280;3551;41.578;24.706;2023-02-19T23:18:36;91311.72;;;5.29;80.46
3464;BME280;3551;41.578;24.706;2023-02-19T23:21:07;91310.56;;;5.27;80.58
3464;BME280;3551;41.578;24.706;2023-02-19T23:23:47;91310.22;;;5.28;80.61
3464;BME280;3551;41.578;24.706;2023-02-19T23:26:26;91317.34;;;5.24;81.06
3464;BME280;3551;41.578;24.706;2023-02-19T23:29:10;91308.31;;;5.29;80.82
3464;BME280;3551;41.578;24.706;2023-02-19T23:31:51;91311.38;;;5.31;80.37
3464;BME280;3551;41.578;24.706;2023-02-19T23:37:59;91304.91;;;5.28;80.79
3464;BME280;3551;41.578;24.706;2023-02-19T23:41:18;91298.84;;;5.28;80.46
3464;BME280;3551;41.578;24.706;2023-02-19T23:57:24;91295.22;;;5.39;81.22
